createdAt,value
2023-05-23T00:04:39.028Z,11.50
2023-05-23T00:09:40.700Z,10.93
2023-05-23T00:14:42.372Z,10.88
2023-05-23T00:19:45.670Z,10.75
2023-05-23T00:24:47.357Z,11.10
2023-05-23T00:29:48.994Z,9.80
2023-05-23T00:34:50.620Z,10.77
2023-05-23T00:39:52.470Z,10.50
2023-05-23T00:44:54.160Z,10.75
2023-05-23T00:49:55.923Z,10.05
2023-05-23T00:54:57.591Z,10.95
2023-05-23T00:59:59.197Z,10.70
2023-05-23T01:05:02.473Z,11.68
2023-05-23T01:10:05.246Z,11.05
2023-05-23T01:15:12.613Z,10.88
2023-05-23T01:20:30.007Z,12.43
2023-05-23T01:25:49.783Z,11.73
2023-05-23T01:30:56.016Z,12.40
2023-05-23T01:36:00.257Z,11.77
2023-05-23T01:41:01.881Z,11.68
2023-05-23T01:46:06.330Z,11.52
2023-05-23T01:51:08.207Z,11.85
2023-05-23T01:56:10.202Z,12.35
2023-05-23T02:01:12.057Z,11.70
2023-05-23T02:06:13.674Z,10.57
2023-05-23T02:11:16.064Z,11.73
2023-05-23T02:16:18.144Z,11.50
2023-05-23T02:21:20.284Z,12.55
2023-05-23T02:26:21.881Z,12.70
2023-05-23T02:31:23.626Z,11.52
2023-05-23T02:36:25.488Z,11.27
2023-05-23T02:41:27.411Z,12.55
2023-05-23T02:46:29.191Z,11.88
2023-05-23T02:51:32.215Z,12.40
2023-05-23T02:56:33.832Z,12.25
2023-05-23T03:01:35.660Z,11.93
2023-05-23T03:06:37.394Z,12.70
2023-05-23T03:11:39.129Z,12.00
2023-05-23T03:16:40.913Z,12.32
2023-05-23T03:21:42.725Z,12.45
2023-05-23T03:26:45.319Z,12.32
2023-05-23T03:31:47.258Z,13.40
2023-05-23T03:36:49.340Z,13.60
2023-05-23T03:41:51.278Z,14.80
2023-05-23T03:46:53.276Z,14.23
2023-05-23T03:51:55.949Z,15.35
2023-05-23T03:56:57.730Z,15.85
2023-05-23T04:02:01.330Z,15.88
2023-05-23T04:07:05.730Z,15.95
2023-05-23T04:12:09.809Z,18.73
2023-05-23T04:17:12.113Z,19.42
2023-05-23T04:22:16.487Z,18.55
2023-05-23T04:27:19.923Z,20.70
2023-05-23T04:32:23.116Z,17.77
2023-05-23T04:37:26.418Z,17.65
2023-05-23T04:42:29.497Z,18.70
2023-05-23T04:47:38.348Z,16.67
2023-05-23T04:52:43.180Z,18.58
2023-05-23T04:57:45.336Z,18.42
2023-05-23T05:02:47.090Z,19.17
2023-05-23T05:07:48.814Z,20.55
2023-05-23T05:12:50.581Z,21.88
2023-05-23T05:17:53.729Z,24.50
2023-05-23T05:22:58.135Z,24.00
2023-05-23T05:28:06.040Z,20.63
2023-05-23T05:33:11.695Z,20.30
2023-05-23T05:38:14.437Z,19.55
2023-05-23T05:43:16.664Z,20.30
2023-05-23T05:48:18.343Z,19.00
2023-05-23T05:53:20.214Z,19.58
2023-05-23T05:58:22.723Z,18.67
2023-05-23T06:03:32.930Z,17.92
2023-05-23T06:08:34.804Z,16.83
2023-05-23T06:13:36.567Z,17.05
2023-05-23T06:18:38.369Z,16.38
2023-05-23T06:23:40.385Z,15.32
2023-05-23T06:28:42.183Z,16.70
2023-05-23T06:33:43.787Z,16.20
2023-05-23T06:38:45.847Z,14.73
2023-05-23T06:43:47.450Z,13.63
2023-05-23T06:49:10.662Z,12.85
2023-05-23T06:54:16.630Z,13.45
2023-05-23T06:59:19.589Z,13.25
2023-05-23T07:04:21.526Z,11.57
2023-05-23T07:09:33.770Z,12.23
2023-05-23T07:19:46.570Z,11.45
2023-05-23T07:24:51.738Z,11.40
2023-05-23T07:29:53.727Z,11.57
2023-05-23T07:34:55.400Z,10.70
2023-05-23T07:39:57.154Z,12.48
2023-05-23T07:44:58.977Z,12.48
2023-05-23T07:50:02.448Z,11.75
2023-05-23T07:55:05.399Z,10.85
2023-05-23T08:00:10.139Z,11.43
2023-05-23T08:05:16.919Z,11.80
2023-05-23T08:10:18.757Z,12.52
2023-05-23T08:15:23.112Z,13.02
2023-05-23T08:20:32.996Z,11.95
2023-05-23T08:25:34.924Z,9.52
2023-05-23T08:30:37.235Z,10.82
2023-05-23T08:35:39.855Z,10.00
2023-05-23T08:40:50.491Z,10.35
2023-05-23T08:45:53.808Z,10.23
2023-05-23T08:50:55.822Z,10.30
2023-05-23T08:56:02.716Z,8.88
2023-05-23T09:01:13.927Z,7.97
2023-05-23T09:06:18.271Z,7.38
2023-05-23T09:11:22.013Z,7.90
2023-05-23T09:16:24.524Z,8.32
2023-05-23T09:21:31.949Z,8.02
2023-05-23T09:26:50.213Z,7.45
2023-05-23T09:31:52.084Z,5.68
2023-05-23T09:36:55.647Z,7.45
2023-05-23T09:41:59.580Z,6.38
2023-05-23T09:47:06.987Z,6.30
2023-05-23T09:52:08.670Z,6.07
2023-05-23T09:57:11.593Z,5.72
2023-05-23T10:02:16.150Z,4.93
2023-05-23T10:07:23.476Z,4.45
2023-05-23T10:12:31.167Z,4.05
2023-05-23T10:18:02.733Z,3.40
2023-05-23T10:23:05.479Z,3.13
2023-05-23T10:28:07.255Z,3.50
2023-05-23T10:33:09.668Z,3.40
2023-05-23T10:38:23.164Z,3.45
2023-05-23T10:43:27.449Z,3.70
2023-05-23T10:48:29.002Z,3.95
2023-05-23T10:53:31.707Z,2.92
2023-05-23T10:58:34.862Z,3.45
2023-05-23T11:03:42.544Z,3.60
2023-05-23T11:08:48.867Z,3.00
2023-05-23T11:13:56.807Z,3.45
2023-05-23T11:19:21.023Z,3.10
2023-05-23T11:24:23.266Z,3.20
2023-05-23T11:29:27.246Z,3.28
2023-05-23T11:34:28.886Z,2.80
2023-05-23T11:39:30.677Z,3.25
2023-05-23T11:44:32.263Z,2.88
2023-05-23T11:49:38.635Z,2.78
2023-05-23T11:54:42.447Z,3.00
2023-05-23T11:59:44.557Z,2.55
2023-05-23T12:04:46.237Z,2.92
2023-05-23T12:09:48.286Z,3.20
2023-05-23T12:14:49.940Z,2.83
2023-05-23T12:19:53.026Z,2.58
2023-05-23T12:24:56.029Z,2.85
2023-05-23T12:30:11.905Z,3.08
2023-05-23T12:35:16.627Z,2.55
2023-05-23T12:40:19.377Z,3.10
2023-05-23T12:45:25.153Z,2.55
2023-05-23T12:50:27.413Z,2.58
2023-05-23T12:55:29.072Z,3.15
2023-05-23T13:00:30.845Z,3.13
2023-05-23T13:05:32.458Z,3.50
2023-05-23T13:10:40.225Z,3.60
2023-05-23T13:15:42.643Z,3.58
2023-05-23T13:20:44.622Z,3.35
2023-05-23T13:25:46.229Z,3.08
2023-05-23T13:30:48.095Z,2.85
2023-05-23T13:35:50.988Z,4.13
2023-05-23T13:40:52.984Z,3.05
2023-05-23T13:45:54.820Z,3.38
2023-05-23T13:50:58.316Z,3.33
2023-05-23T13:55:59.936Z,3.13
2023-05-23T14:01:01.562Z,3.65
2023-05-23T14:06:04.976Z,3.42
2023-05-23T14:11:06.616Z,3.70
2023-05-23T14:16:08.257Z,2.85
2023-05-23T14:21:09.925Z,3.53
2023-05-23T14:26:11.529Z,3.90
2023-05-23T14:31:13.136Z,4.72
2023-05-23T14:36:14.763Z,4.85
2023-05-23T14:41:16.490Z,4.68
2023-05-23T14:46:18.367Z,4.40
2023-05-23T14:51:34.631Z,4.28
2023-05-23T14:56:41.724Z,3.85
2023-05-23T15:01:43.786Z,4.35
2023-05-23T15:06:47.215Z,4.90
2023-05-23T15:11:49.629Z,5.40
2023-05-23T15:16:51.697Z,5.28
2023-05-23T15:21:55.838Z,6.00
2023-05-23T15:27:08.164Z,5.80
2023-05-23T15:32:19.467Z,5.43
2023-05-23T15:37:21.230Z,5.53
2023-05-23T15:42:22.818Z,6.50
2023-05-23T15:47:24.414Z,6.13
2023-05-23T15:52:26.067Z,6.35
2023-05-23T15:57:27.690Z,6.50
2023-05-23T16:02:29.335Z,6.07
2023-05-23T16:07:31.235Z,6.32
2023-05-23T16:12:32.893Z,6.43
2023-05-23T16:17:34.551Z,6.30
2023-05-23T16:22:36.446Z,7.10
2023-05-23T16:27:38.085Z,6.50
2023-05-23T16:32:39.720Z,6.35
2023-05-23T16:37:41.373Z,5.30
2023-05-23T16:42:44.397Z,5.43
2023-05-23T16:47:46.072Z,6.45
2023-05-23T16:52:47.760Z,6.30
2023-05-23T16:57:49.426Z,7.32
2023-05-23T17:02:51.393Z,6.68
2023-05-23T17:07:53.173Z,7.88
2023-05-23T17:12:54.861Z,6.80
2023-05-23T17:17:56.531Z,6.70
2023-05-23T17:22:58.199Z,7.10
2023-05-23T17:27:59.788Z,6.50
2023-05-23T17:33:01.488Z,7.55
2023-05-23T17:38:05.780Z,7.43
2023-05-23T17:43:07.440Z,7.07
2023-05-23T17:48:09.216Z,8.00
2023-05-23T17:53:11.282Z,8.70
2023-05-23T17:58:12.946Z,9.02
2023-05-23T18:03:14.614Z,9.85
2023-05-23T18:08:16.427Z,9.32
2023-05-23T18:13:18.148Z,9.85
2023-05-23T18:18:19.884Z,9.48
2023-05-23T18:23:21.875Z,9.27
2023-05-23T18:28:23.509Z,9.10
2023-05-23T18:33:25.142Z,8.38
2023-05-23T18:38:27.156Z,8.35
2023-05-23T18:43:28.836Z,8.48
2023-05-23T18:48:31.900Z,9.20
2023-05-23T18:53:35.525Z,10.15
2023-05-23T18:58:37.221Z,10.60
2023-05-23T19:03:38.966Z,12.50
2023-05-23T19:08:42.264Z,12.23
2023-05-23T19:13:43.887Z,12.40
2023-05-23T19:18:45.989Z,11.52
2023-05-23T19:23:47.641Z,10.98
2023-05-23T19:28:49.349Z,10.63
2023-05-23T19:33:51.110Z,9.88
2023-05-23T19:38:53.774Z,9.35
2023-05-23T19:43:55.588Z,9.00
2023-05-23T19:49:00.150Z,9.38
2023-05-23T19:54:01.872Z,9.40
2023-05-23T19:59:03.567Z,9.40
2023-05-23T20:04:06.177Z,9.65
2023-05-23T20:09:07.942Z,7.88
2023-05-23T20:14:09.855Z,8.98
2023-05-23T20:19:11.506Z,7.07
2023-05-23T20:24:14.930Z,7.75
2023-05-23T20:29:16.551Z,7.25
2023-05-23T20:34:18.205Z,6.93
2023-05-23T20:39:21.926Z,6.07
2023-05-23T20:44:23.917Z,5.85
2023-05-23T20:49:26.946Z,5.95
2023-05-23T20:54:28.613Z,5.70
2023-05-23T20:59:30.510Z,5.45
2023-05-23T21:04:33.494Z,5.07
2023-05-23T21:09:35.132Z,5.00
2023-05-23T21:14:43.258Z,5.35
2023-05-23T21:19:44.971Z,5.07
2023-05-23T21:24:46.690Z,4.25
2023-05-23T21:29:48.363Z,4.32
2023-05-23T21:34:50.046Z,4.70
2023-05-23T21:39:52.770Z,4.95
2023-05-23T21:44:54.479Z,4.05
2023-05-23T21:49:56.077Z,4.35
2023-05-23T21:54:57.660Z,3.95
2023-05-23T21:59:59.284Z,4.07
2023-05-23T22:05:00.911Z,3.92
2023-05-23T22:10:02.636Z,3.75
2023-05-23T22:15:05.157Z,3.58
2023-05-23T22:20:07.194Z,3.25
2023-05-23T22:25:09.039Z,2.70
2023-05-23T22:30:11.118Z,3.40
2023-05-23T22:35:12.739Z,2.80
2023-05-23T22:40:14.367Z,2.72
2023-05-23T22:45:16.182Z,3.17
2023-05-23T22:50:17.819Z,2.65
2023-05-23T22:55:19.494Z,3.08
2023-05-23T23:00:21.504Z,3.70
2023-05-23T23:05:23.173Z,3.20
2023-05-23T23:10:24.986Z,3.25
2023-05-23T23:15:26.642Z,3.08
2023-05-23T23:20:28.635Z,2.72
2023-05-23T23:25:30.613Z,3.10
2023-05-23T23:30:32.217Z,2.72
2023-05-23T23:35:33.792Z,3.10
2023-05-23T23:40:35.473Z,2.90
2023-05-23T23:45:37.101Z,2.88
2023-05-23T23:50:38.921Z,2.78
2023-05-23T23:55:40.740Z,2.90
